Wetterstation Vordersexau
Wetterdaten: Oktober 2011
Datum Temp. A. Feuchte A. Luftdruck Regen Wind Richtung Taupunkt Windchill Windben
01.10.2011 18,6 C 68 % 1023,5 hPa 0,0 l/m 0,0 km/h NO 11,7 C 18,6 C 0,0 km/h
02.10.2011 18,7 C 68 % 1022,9 hPa 0,0 l/m 1,3 km/h NO 11,8 C 18,5 C 0,7 km/h
03.10.2011 18,8 C 68 % 1021,6 hPa 0,0 l/m 0,9 km/h O-NO 12,1 C 18,8 C 0,5 km/h
04.10.2011 18,4 C 65 % 1021,7 hPa 0,0 l/m 4,4 km/h NO 10,9 C 18,2 C 2,4 km/h
05.10.2011 17,3 C 72 % 1021,5 hPa 0,0 l/m 1,8 km/h SO 11,8 C 17,1 C 1,0 km/h
06.10.2011 15,7 C 73 % 1014,8 hPa 9,3 l/m 9,6 km/h O-NO 10,5 C 14,1 C 5,3 km/h
07.10.2011 10,0 C 79 % 1014,3 hPa 2,1 l/m 6,6 km/h W 6,4 C 8,2 C 3,7 km/h
08.10.2011 8,6 C 82 % 1016,7 hPa 9,3 l/m 3,5 km/h W 5,6 C 8,0 C 2,0 km/h
09.10.2011 11,8 C 71 % 1020,2 hPa 2,5 l/m 0,9 km/h S 6,3 C 11,7 C 0,5 km/h
10.10.2011 14,7 C 80 % 1020,7 hPa 6,8 l/m 7,8 km/h NO 11,3 C 13,2 C 4,3 km/h
11.10.2011 15,7 C 77 % 1022,2 hPa 0,0 l/m 13,8 km/h W-SW 11,5 C 12,7 C 7,7 km/h
12.10.2011 14,1 C 80 % 1021,1 hPa 0,0 l/m 11,1 km/h W-SW 10,7 C 11,6 C 6,2 km/h
13.10.2011 12,4 C 83 % 1023,8 hPa 2,1 l/m 1,2 km/h SO 9,6 C 12,4 C 0,7 km/h
14.10.2011 11,5 C 65 % 1026,0 hPa 0,0 l/m 1,4 km/h NO 4,2 C 11,4 C 0,8 km/h
15.10.2011 7,2 C 73 % 1024,9 hPa 0,0 l/m 0,5 km/h N 2,3 C 7,2 C 0,3 km/h
16.10.2011 9,1 C 73 % 1023,1 hPa 0,0 l/m 0,0 km/h NO 4,1 C 9,1 C 0,0 km/h
17.10.2011 10,6 C 75 % 1021,4 hPa 0,0 l/m 0,0 km/h O-SO 5,9 C 10,6 C 0,0 km/h
18.10.2011 13,7 C 65 % 1014,4 hPa 0,0 l/m 9,8 km/h O-NO 6,8 C 12,0 C 5,4 km/h
19.10.2011 6,6 C 83 % 1016,4 hPa 12,1 l/m 0,8 km/h S-SO 3,9 C 6,6 C 0,4 km/h
20.10.2011 7,6 C 75 % 1023,7 hPa 0,0 l/m 0,7 km/h O 3,1 C 7,6 C 0,4 km/h
21.10.2011 2,7 C 84 % 1025,0 hPa 0,4 l/m 0,2 km/h W-NW 0,3 C 2,7 C 0,1 km/h
22.10.2011 4,6 C 78 % 1021,0 hPa 0,0 l/m 0,4 km/h SO 0,9 C 4,6 C 0,2 km/h
23.10.2011 4,9 C 78 % 1015,9 hPa 0,0 l/m 0,4 km/h NO 1,2 C 4,9 C 0,2 km/h
24.10.2011 4,3 C 83 % 1007,2 hPa 0,0 l/m 0,2 km/h W 1,6 C 4,3 C 0,1 km/h
25.10.2011 7,6 C 82 % 1002,8 hPa 0,0 l/m 0,0 km/h O-NO 4,7 C 7,6 C 0,0 km/h
26.10.2011 12,5 C 69 % 1012,0 hPa 0,0 l/m 5,2 km/h SO 6,4 C 11,3 C 2,9 km/h
27.10.2011 7,6 C 77 % 1013,7 hPa 0,0 l/m 0,1 km/h NW 3,6 C 7,6 C 0,0 km/h
28.10.2011 9,6 C 76 % 1021,3 hPa 0,0 l/m 0,0 km/h O-NO 5,3 C 9,6 C 0,0 km/h
29.10.2011 11,0 C 75 % 1022,9 hPa 0,0 l/m 0,1 km/h NW 6,6 C 11,0 C 0,0 km/h
30.10.2011 12,0 C 80 % 1021,1 hPa 0,0 l/m 0,2 km/h O 8,5 C 12,0 C 0,1 km/h
31.10.2011 8,9 C 81 % 1017,4 hPa 0,0 l/m 0,2 km/h O-NO 5,9 C 8,9 C 0,1 km/h
Min-Datum 23.10.11 14.10.11 25.10.11 8 Tage 01.10.11 - 23.10.11 23.10.11 01.10.11
Min-Zeit 04:30 17:30 15:30 - 00:30 - 05:30 04:30 00:30
Minimum -1,4 C 31 % 1001,0 hPa - 0,0 km/h - -3,7 C -1,4 C 0,0 km/h
Max-Datum 02.10.11 22.10.11 14.10.11 19.10.11 12.10.11 - 01.10.11 02.10.11 12.10.11
Max-Zeit 16:30 11:30 11:30 10:30 13:30 - 10:30 16:30 13:30
Maximum 32,7 C 86 % 1027,1 hPa 12,1 l/m 40,2 km/h
W-SW
- 17,5 C 32,7 C 22,3 km/h
W-SW
Durchschnitt 11,2 C 75 % 1019,2 hPa #44,5 l/m 2,7 km/h NO 6,6 C 10,7 C 1,5 km/h

Durchschnitt Minimum Temp.5,7 C
Durchschnitt Maximum Temp.19,9 C
www.sexauwetter.de